createdAt,value
2017-02-12T00:04:36.638Z,1016.06
2017-02-12T00:09:33.136Z,1016.04
2017-02-12T00:14:29.418Z,1016.01
2017-02-12T00:19:25.787Z,1016.22
2017-02-12T00:24:22.175Z,1016.23
2017-02-12T00:29:20.222Z,1016.16
2017-02-12T00:34:16.415Z,1016.13
2017-02-12T00:39:12.916Z,1016.27
2017-02-12T00:44:09.881Z,1016.37
2017-02-12T00:49:07.057Z,1016.20
2017-02-12T00:54:03.719Z,1016.30
2017-02-12T00:58:59.958Z,1016.23
2017-02-12T01:03:56.373Z,1016.46
2017-02-12T01:08:52.432Z,1016.39
2017-02-12T01:13:48.627Z,1016.42
2017-02-12T01:18:45.103Z,1016.36
2017-02-12T01:23:41.746Z,1016.55
2017-02-12T01:28:39.185Z,1016.54
2017-02-12T01:33:36.010Z,1016.63
2017-02-12T01:38:35.260Z,1016.60
2017-02-12T01:43:30.903Z,1016.55
2017-02-12T01:48:27.695Z,1016.41
2017-02-12T01:53:24.735Z,1016.29
2017-02-12T01:58:20.964Z,1016.49
2017-02-12T02:03:17.050Z,1016.53
2017-02-12T02:08:14.019Z,1016.63
2017-02-12T02:13:10.881Z,1016.65
2017-02-12T02:18:07.172Z,1016.71
2017-02-12T02:23:03.480Z,1016.78
2017-02-12T02:28:00.140Z,1016.85
2017-02-12T02:32:56.082Z,1016.78
2017-02-12T02:37:52.308Z,1016.81
2017-02-12T02:42:49.323Z,1016.91
2017-02-12T02:47:45.675Z,1016.84
2017-02-12T02:52:45.445Z,1016.84
2017-02-12T02:57:41.072Z,1016.88
2017-02-12T03:07:41.000Z,1017.00
2017-02-12T03:12:38.728Z,1016.96
2017-02-12T03:22:36.284Z,1017.08
2017-02-12T03:27:33.407Z,1017.11
2017-02-12T03:32:30.352Z,1017.18
2017-02-12T03:37:27.063Z,1017.20
2017-02-12T03:42:24.738Z,1017.25
2017-02-12T03:47:20.692Z,1017.19
2017-02-12T03:52:16.712Z,1017.15
2017-02-12T03:57:13.447Z,1017.30
2017-02-12T04:02:10.483Z,1017.32
2017-02-12T04:07:08.053Z,1017.29
2017-02-12T04:17:08.332Z,1017.61
2017-02-12T04:22:04.620Z,1017.50
2017-02-12T04:27:01.145Z,1017.46
2017-02-12T04:31:59.029Z,1017.55
2017-02-12T04:41:58.604Z,1017.64
2017-02-12T04:46:54.741Z,1017.62
2017-02-12T04:51:51.368Z,1017.69
2017-02-12T04:56:48.097Z,1017.86
2017-02-12T05:01:45.318Z,1017.89
2017-02-12T05:06:42.267Z,1017.96
2017-02-12T05:11:38.725Z,1017.97
2017-02-12T05:16:35.579Z,1017.91
2017-02-12T05:21:32.134Z,1017.92
2017-02-12T05:26:28.717Z,1017.88
2017-02-12T05:31:25.300Z,1018.00
2017-02-12T05:36:21.608Z,1018.09
2017-02-12T05:41:18.507Z,1018.26
2017-02-12T05:46:15.179Z,1018.40
2017-02-12T05:51:11.750Z,1018.49
2017-02-12T05:56:08.019Z,1018.57
2017-02-12T06:01:08.514Z,1018.73
2017-02-12T06:06:04.267Z,1018.70
2017-02-12T06:11:00.885Z,1018.70
2017-02-12T06:15:58.212Z,1018.52
2017-02-12T06:20:54.121Z,1018.26
2017-02-12T06:25:50.392Z,1018.44
2017-02-12T06:30:48.436Z,1018.57
2017-02-12T06:35:45.426Z,1018.71
2017-02-12T06:40:41.534Z,1018.80
2017-02-12T06:45:37.934Z,1018.98
2017-02-12T06:50:34.645Z,1019.04
2017-02-12T06:55:31.112Z,1019.13
2017-02-12T07:00:27.235Z,1019.22
2017-02-12T07:05:24.007Z,1019.23
2017-02-12T07:10:20.532Z,1019.09
2017-02-12T07:15:16.786Z,1019.09
2017-02-12T07:20:13.388Z,1019.19
2017-02-12T07:25:09.982Z,1019.41
2017-02-12T07:30:06.433Z,1019.50
2017-02-12T07:35:02.926Z,1019.59
2017-02-12T07:39:59.271Z,1019.58
2017-02-12T07:44:55.983Z,1019.72
2017-02-12T07:49:52.444Z,1019.81
2017-02-12T07:54:49.075Z,1019.79
2017-02-12T07:59:45.544Z,1019.85
2017-02-12T08:04:41.991Z,1019.80
2017-02-12T08:09:38.406Z,1020.00
2017-02-12T08:14:35.041Z,1020.14
2017-02-12T08:19:32.170Z,1020.07
2017-02-12T08:24:28.507Z,1020.13
2017-02-12T08:29:24.840Z,1020.27
2017-02-12T08:34:21.361Z,1020.33
2017-02-12T08:39:17.716Z,1020.30
2017-02-12T08:44:14.366Z,1020.47
2017-02-12T08:49:10.881Z,1020.44
2017-02-12T08:54:08.084Z,1020.64
2017-02-12T08:59:04.626Z,1020.70
2017-02-12T09:04:01.891Z,1020.72
2017-02-12T09:08:58.751Z,1020.73
2017-02-12T09:13:54.695Z,1020.86
2017-02-12T09:18:51.666Z,1020.93
2017-02-12T09:23:48.108Z,1021.02
2017-02-12T09:28:43.946Z,1021.03
2017-02-12T09:33:40.395Z,1021.00
2017-02-12T09:38:37.281Z,1021.02
2017-02-12T09:43:33.802Z,1021.06
2017-02-12T09:48:30.245Z,1021.16
2017-02-12T09:53:26.483Z,1021.09
2017-02-12T09:58:23.046Z,1021.30
2017-02-12T10:03:19.496Z,1021.41
2017-02-12T10:08:15.739Z,1021.22
2017-02-12T10:13:12.018Z,1021.33
2017-02-12T10:18:08.504Z,1021.60
2017-02-12T10:23:04.854Z,1021.57
2017-02-12T10:28:01.706Z,1021.65
2017-02-12T10:32:58.311Z,1021.67
2017-02-12T10:37:55.055Z,1021.67
2017-02-12T10:42:52.458Z,1021.72
2017-02-12T10:47:48.824Z,1021.66
2017-02-12T10:52:45.650Z,1021.75
2017-02-12T10:57:41.785Z,1021.91
2017-02-12T11:02:38.338Z,1021.87
2017-02-12T11:07:35.206Z,1021.84
2017-02-12T11:12:31.317Z,1021.81
2017-02-12T11:17:27.265Z,1021.92
2017-02-12T11:22:24.712Z,1021.97
2017-02-12T11:27:20.889Z,1021.84
2017-02-12T11:32:17.149Z,1021.81
2017-02-12T11:37:13.962Z,1021.80
2017-02-12T11:42:10.327Z,1021.79
2017-02-12T11:47:06.855Z,1021.92
2017-02-12T11:52:03.331Z,1021.72
2017-02-12T11:56:59.788Z,1021.80
2017-02-12T12:01:56.688Z,1021.86
2017-02-12T12:06:53.702Z,1021.90
2017-02-12T12:11:50.222Z,1021.92
2017-02-12T12:16:46.872Z,1021.74
2017-02-12T12:21:43.218Z,1021.78
2017-02-12T12:26:39.534Z,1021.77
2017-02-12T12:31:36.983Z,1021.95
2017-02-12T12:36:33.309Z,1021.86
2017-02-12T12:41:30.920Z,1021.81
2017-02-12T12:46:27.646Z,1021.87
2017-02-12T12:51:23.955Z,1021.79
2017-02-12T12:56:20.068Z,1021.96
2017-02-12T13:01:16.693Z,1021.96
2017-02-12T13:06:13.352Z,1022.02
2017-02-12T13:11:10.186Z,1021.88
2017-02-12T13:16:06.403Z,1021.65
2017-02-12T13:21:03.278Z,1021.73
2017-02-12T13:26:00.454Z,1021.76
2017-02-12T13:30:56.627Z,1021.68
2017-02-12T13:35:53.717Z,1021.63
2017-02-12T13:40:49.325Z,1021.64
2017-02-12T13:45:45.661Z,1021.55
2017-02-12T13:50:42.129Z,1021.56
2017-02-12T13:55:39.170Z,1021.62
2017-02-12T14:00:35.645Z,1021.57
2017-02-12T14:05:32.633Z,1021.56
2017-02-12T14:10:29.074Z,1021.74
2017-02-12T14:15:26.233Z,1021.75
2017-02-12T14:20:22.723Z,1021.82
2017-02-12T14:25:19.140Z,1021.84
2017-02-12T14:30:15.626Z,1021.77
2017-02-12T14:35:12.226Z,1021.70
2017-02-12T14:40:08.673Z,1021.70
2017-02-12T14:45:04.800Z,1021.84
2017-02-12T14:50:00.976Z,1021.86
2017-02-12T14:54:57.666Z,1021.86
2017-02-12T14:59:53.664Z,1021.95
2017-02-12T15:04:50.244Z,1021.93
2017-02-12T15:09:46.370Z,1022.03
2017-02-12T15:14:42.811Z,1021.93
2017-02-12T15:19:38.811Z,1021.85
2017-02-12T15:24:35.080Z,1021.99
2017-02-12T15:29:31.364Z,1022.09
2017-02-12T15:34:28.457Z,1022.12
2017-02-12T15:39:24.652Z,1022.19
2017-02-12T15:44:21.276Z,1022.01
2017-02-12T15:49:17.539Z,1022.00
2017-02-12T15:54:13.667Z,1022.10
2017-02-12T15:59:09.823Z,1022.17
2017-02-12T16:04:05.932Z,1022.21
2017-02-12T16:09:02.507Z,1022.32
2017-02-12T16:13:58.905Z,1022.29
2017-02-12T16:18:55.112Z,1022.41
2017-02-12T16:23:52.227Z,1022.46
2017-02-12T16:28:48.509Z,1022.50
2017-02-12T16:33:44.736Z,1022.60
2017-02-12T16:38:40.637Z,1022.58
2017-02-12T16:43:36.849Z,1022.62
2017-02-12T16:48:33.859Z,1022.69
2017-02-12T16:53:30.292Z,1022.78
2017-02-12T16:58:26.606Z,1022.78
2017-02-12T17:03:23.024Z,1022.80
2017-02-12T17:08:19.383Z,1022.92
2017-02-12T17:13:15.640Z,1022.89
2017-02-12T17:18:11.939Z,1022.96
2017-02-12T17:23:08.358Z,1023.22
2017-02-12T17:28:04.593Z,1023.26
2017-02-12T17:33:01.357Z,1023.49
2017-02-12T17:37:57.619Z,1023.36
2017-02-12T17:42:53.795Z,1023.53
2017-02-12T17:47:50.873Z,1023.62
2017-02-12T17:52:50.969Z,1023.62
2017-02-12T17:57:47.775Z,1023.58
2017-02-12T18:02:43.595Z,1023.64
2017-02-12T18:07:40.015Z,1023.68
2017-02-12T18:12:36.473Z,1023.66
2017-02-12T18:17:32.992Z,1023.76
2017-02-12T18:22:30.215Z,1023.76
2017-02-12T18:27:27.505Z,1023.77
2017-02-12T18:32:23.254Z,1023.78
2017-02-12T18:37:19.968Z,1023.87
2017-02-12T18:42:16.286Z,1023.65
2017-02-12T18:47:12.605Z,1023.71
2017-02-12T18:52:09.329Z,1023.89
2017-02-12T18:57:05.868Z,1023.76
2017-02-12T19:02:03.908Z,1023.68
2017-02-12T19:06:59.802Z,1023.72
2017-02-12T19:11:56.520Z,1023.79
2017-02-12T19:16:52.627Z,1023.72
2017-02-12T19:21:48.874Z,1023.62
2017-02-12T19:26:46.892Z,1023.58
2017-02-12T19:31:42.946Z,1023.49
2017-02-12T19:36:39.289Z,1023.60
2017-02-12T19:41:35.623Z,1023.55
2017-02-12T19:46:32.404Z,1023.50
2017-02-12T19:51:28.706Z,1023.55
2017-02-12T19:56:24.597Z,1023.63
2017-02-12T20:01:20.811Z,1023.62
2017-02-12T20:06:17.904Z,1023.68
2017-02-12T20:11:14.903Z,1023.73
2017-02-12T20:16:11.035Z,1023.77
2017-02-12T20:21:07.460Z,1023.75
2017-02-12T20:26:03.802Z,1023.81
2017-02-12T20:30:59.979Z,1023.77
2017-02-12T20:35:56.297Z,1023.78
2017-02-12T20:40:52.744Z,1023.73
2017-02-12T20:45:49.345Z,1023.76
2017-02-12T20:50:45.856Z,1023.89
2017-02-12T20:55:42.587Z,1023.90
2017-02-12T21:00:39.137Z,1023.96
2017-02-12T21:05:35.400Z,1023.84
2017-02-12T21:10:31.581Z,1024.03
2017-02-12T21:15:27.761Z,1023.97
2017-02-12T21:20:24.070Z,1024.06
2017-02-12T21:25:20.273Z,1024.16
2017-02-12T21:30:17.511Z,1024.08
2017-02-12T21:35:13.388Z,1024.12
2017-02-12T21:40:09.911Z,1024.12
2017-02-12T21:45:06.355Z,1024.07
2017-02-12T21:50:02.547Z,1024.09
2017-02-12T21:54:58.528Z,1024.05
2017-02-12T21:59:55.376Z,1024.15
2017-02-12T22:04:52.449Z,1024.05
2017-02-12T22:09:48.720Z,1024.06
2017-02-12T22:14:45.076Z,1024.06
2017-02-12T22:19:41.139Z,1024.05
2017-02-12T22:24:37.548Z,1024.01
2017-02-12T22:29:33.561Z,1024.00
2017-02-12T22:34:30.044Z,1024.06
2017-02-12T22:44:29.301Z,1024.01
2017-02-12T22:49:26.300Z,1024.01
2017-02-12T22:54:22.970Z,1024.14
2017-02-12T22:59:19.058Z,1024.12
2017-02-12T23:04:15.559Z,1024.10
2017-02-12T23:09:12.214Z,1024.09
2017-02-12T23:14:08.736Z,1024.04
2017-02-12T23:19:05.512Z,1024.04
2017-02-12T23:24:01.846Z,1023.99
2017-02-12T23:29:00.980Z,1024.11
2017-02-12T23:33:57.442Z,1024.07
2017-02-12T23:38:53.868Z,1024.05
2017-02-12T23:43:50.090Z,1024.14
2017-02-12T23:48:46.419Z,1024.05
2017-02-12T23:53:42.973Z,1024.24
2017-02-12T23:58:39.131Z,1024.24
